Quincy, WA

1:13 PM PDT on September 17, 2014 (GMT -0700)
Winchester | Change Station
CLOSE
Current Station
Personal Weather Station
Location: Quincy, WA
Elevation: 1350 ft
Nearby Weather Stations

Elev 1350 ft 47.26 °N, 119.72 °W | Updated 3 minutes ago

Partly Cloudy
Partly Cloudy
73.6 °F
Feels Like 77 °F
N
0.0
Wind Variable Wind from SSE
Gusts 5.0 mph

Today
High -- | Low -- °F
--% Chance of Precip.
Yesterday
High -- | Low -- °F
Precip. -- in
6:39 AM 7:07 PM
Waning Crescent, 33% visible
Pressure 29.71 in
Visibility 10.0 miles
Clouds Clear
Heat Index 77 °F
Dew Point 50 °F
Humidity 44%
Rainfall -999.00 in
Snow Depth 0 in , 0 in , 0 in
UV 6 out of 12
Pollen 2.80 out of 12
Air Quality Not available.
Flu Activity Not available.
METAR KEPH 171953Z AUTO VRB03KT 10SM CLR 26/05 A2973 RMK AO2 SLP060 T02610050

More Conditions Fewer Conditions

Pressure 29.71 in
Visibility 10.0 miles
Clouds Clear
Heat Index 77 °F
Dew Point 50 °F
Humidity 44%
Rainfall -999.00 in
Snow Depth 0 in , 0 in , 0 in
UV 6 out of 12
Pollen 2.80 out of 12
Air Quality Not available.
Flu Activity Not available.
METAR KEPH 171953Z AUTO VRB03KT 10SM CLR 26/05 A2973 RMK AO2 SLP060 T02610050

More Conditions Fewer Conditions

10-Day Weather Forecast

Almanac

Astronomy

Sep. 17, 2014 Rise Set
Actual Time 6:39 AM PDT 7:07 PM PDT
Civil Twilight 6:09 AM PDT 7:37 PM PDT
Nautical Twilight 5:32 AM PDT 8:13 PM PDT
Astronomical Twilight 4:55 AM PDT 8:51 PM PDT
Moon 12:27 AM PDT 3:36 PM PDT
Length of Visible Light 13h 28m
Length of Day
12h 27m
Tomorrow will be 3m 20s shorter.
Waning Crescent, 33% of the Moon is Illuminated
Today
Waning Crescent
Sep 24
New
Oct 1
First Quarter
Oct 8
Full
Oct 15
Last Quarter

Today's Extremes

State Highs State Lows

Community

WunderPhotos

Upload Photos

1,754,157 photos uploaded!

Nearby

Snow Depth

Station Depth Elevation
Lost Horse 0 in 5000 ft
Bunchgrass Meadow 0 in 5000 ft
Touchet 0 in 5530 ft
Huckleberry Creek 0 in 2000 ft
White Pass E.S. 0 in 4500 ft

Earthquake Activity

City Distance Mag. Time & Date
No recent earthquake activity has been reported nearby.
Minimum magnitude displayed is 2.5.

Coastal Water Temperatures

Place Temperature
No Stations Reporting

Nearby Weather Stations